Registration

All data are given in time UTC except for the places where it is expressly stated to the contrary, The data provided on this website are informative!!!


Actual Weather
 
General weather forecast

Storms are forecasted to occur over a large area with rain or hail.
lubellodzmalmazopopodkpodlslaswiTHUNDERSTORMS (st.1)Disturbances in the operation of electrical, electronical devices.Interference in radio and satellite communications.Difficulties in troops deployment (patched roads through broken branches and trees).Threat to life because of lightning.Possibility of damage to military equipment.Fire risk. Disturbances in the operation of radiolocation devices.
Weather - Poland
8°C Szczecin 8°C Suwałki 9°C Warszawa 9°C Poznan
10°C Opole 10°C Kraków 9°C Rzeszów
More cities in Poland

Weather - Europe
8°C Berlin 12°C Paryz 10°C Bruksela 8°C Oslo
10°C Praga 10°C Zagrzeb
More cities in Europe

METAR EPCE 260330Z 35005KT 310V020 9999 OVC006 08/06 Q1032 RMK 078 091 8/8=
METAR EPDA 260330Z 01004KT 320V070 9999 BKN011 09/07 Q1033 RMK 093 086 7/7=
METAR EPDE 260330Z VRB02KT 9999 BKN100 10/08 Q1027 RMK 098 091 7/7=
METAR EPIR 260330Z 36012KT 9999 BKN011 10/06 Q1030 RMK 096 082 7/7=
METAR EPKS 260330Z 35007KT 9999 BKN015 BKN080 09/09 Q1031 RMK 094 100 7/6=
METAR EPLK 260330Z 02005KT 320V080 5000 BR OVC004 10/10 Q1028 RMK 096 100 8/8=
METAR EPLY 260330Z 36004KT 6000 OVC006 10/09 Q1029 RMK 096 094 8/8=
METAR EPMB 260330Z 03008KT 360V060 9999 OVC011 09/07 Q1031 RMK 090 087 8/8=
METAR EPMI 260330Z 36008KT 9999 SCT011 08/07 Q1032 RMK 084 088 3/3=
METAR EPMM 260330Z 36006KT 9999 BKN085 08/08 Q1027 RMK 082 099 6/6=
METAR EPOK 260330Z 35009KT 9999 OVC009 09/07 Q1032 RMK 087 090 8/8=
METAR EPPR 260330Z 34008KT 9999 SCT009 OVC012 09/06 Q1031 RMK 087 084 8/4=
METAR EPPW 260330Z 03008KT 9999 BKN012 10/08 Q1030 RMK 098 090 7/7=
METAR EPSN 260330Z 36005KT 320V040 9999 OVC008 08/07 Q1032 RMK 079 096 8/8=
METAR EPTM 260300Z AUTO 34006KT ///005 ///094 09/08 Q1028 RMK 093 093 ///=


 

Copyright©2007 HS-PAF All rights reserved.